SILO ALERT LOG
| Silo ID | Alert Type | Alert Message | Silo Type | Points | Depth (mm) | Strength | Temperature (°C) | Humidity (%) | Height (mm) | Volume (㎥) | Weight (t) | Flag | Time |
|---|---|---|---|---|---|---|---|---|---|---|---|---|---|
| DJHNR12 | Humidity | 습도센서 측정값이 80% 초과 | 호퍼 | 0 | 10500 | 0 | 6.5 | 80.8 | -120 | 0 | 0 | 31 | 2024-01-12 12:39:23.000 |
| DJSAD01 | Humidity | 습도센서 측정값이 80% 초과 | 평 | 482 | 1454 | 7429 | 3.3 | 86.3 | 7325 | 303.234 | 191.704 | 0 | 2024-01-12 11:39:40.000 |
| DJSAD05 | Humidity | 습도센서 측정값이 80% 초과 | 평 | 494 | 889 | 15359 | 4.1 | 80.6 | 7890 | 326.639 | 206.501 | 11 | 2024-01-12 11:39:39.000 |
| DJSAD02 | Humidity | 습도센서 측정값이 80% 초과 | 평 | 393 | 1126 | 4353 | 3.3 | 87.6 | 7653 | 316.833 | 200.302 | 11 | 2024-01-12 11:39:39.000 |
| DJSAD03 | Humidity | 습도센서 측정값이 80% 초과 | 평 | 440 | 1740 | 6189 | 5.4 | 84.5 | 7039 | 291.413 | 184.231 | 0 | 2024-01-12 11:39:39.000 |
| DJSSD05 | Temperature | 온도센서 측정값이 0도 미만 | 평 | 842 | 2550 | 4873 | -45.4 | 43.8 | 5529 | 769.629 | 486.56 | 0 | 2024-01-12 11:39:33.000 |
| DJSSD01 | Humidity | 습도센서 측정값이 80% 초과 | 평 | 799 | 2571 | 4639 | 6.2 | 83.8 | 5508 | 766.638 | 484.669 | 0 | 2024-01-12 11:39:33.000 |
| DJSSD04 | Temperature | 온도센서 상태 이상 | 평 | 0 | 8200 | 0 | -999 | -999 | -120 | -16.702 | 0 | 31 | 2024-01-12 11:39:33.000 |
| DJDJD01 | Humidity | 습도센서 측정값이 80% 초과 | 평 | 315 | 6852 | 6029 | 3.7 | 80.9 | 827 | 100.238 | 63.37 | 11 | 2024-01-12 11:39:32.000 |
| DJHNR01 | Humidity | 습도센서 측정값이 80% 초과 | 호퍼 | 472 | 4313 | 4857 | 8.7 | 99.9 | 11066 | 472.425 | 298.667 | 13 | 2024-01-12 11:39:32.000 |
| DJDJD04 | Humidity | 습도센서 측정값이 80% 초과 | 평 | 278 | 4199 | 4388 | 5.5 | 81.9 | 3480 | 421.687 | 266.591 | 11 | 2024-01-12 11:39:32.000 |
| DJSAD10 | Humidity | 습도센서 측정값이 80% 초과 | 평 | 0 | 7700 | 231 | 4.6 | 81.4 | -120 | -17.075 | 0 | 31 | 2024-01-12 11:39:32.000 |
| DJSAD08 | Humidity | 습도센서 측정값이 80% 초과 | 평 | 567 | 2351 | 4830 | 9.4 | 83.9 | 5228 | 743.948 | 470.324 | 12 | 2024-01-12 11:39:32.000 |
| DJSAD12 | Humidity | 습도센서 측정값이 80% 초과 | 평 | 0 | 7700 | 0 | 5.8 | 83.7 | -120 | -17.075 | 0 | 31 | 2024-01-12 11:39:32.000 |
| DJSAD16 | Humidity | 습도센서 측정값이 80% 초과 | 평 | 83 | 6577 | 3367 | 6.3 | 81 | 1002 | 99.808 | 63.099 | 11 | 2024-01-12 11:39:31.000 |
| DJSSD09 | Temperature | 온도센서 측정값이 0도 미만 | 평 | 120 | 2890 | 2756 | -45.4 | 0 | 4789 | 666.631 | 421.444 | 11 | 2024-01-12 11:39:31.000 |
| DJSAD17 | Humidity | 습도센서 측정값이 80% 초과 | 평 | 435 | 3128 | 4900 | 5.3 | 81 | 4451 | 443.319 | 280.266 | 0 | 2024-01-12 11:39:30.000 |
| DJSAD18 | Humidity | 습도센서 측정값이 80% 초과 | 평 | 117 | 1393 | 5835 | 6.2 | 80.8 | 6186 | 616.039 | 389.46 | 11 | 2024-01-12 11:39:30.000 |
| DJHNR03 | Temperature | 온도센서 상태 이상 | 호퍼 | 0 | 15500 | 0 | -999 | -999 | -119 | 0 | 0 | 31 | 2024-01-12 11:39:24.000 |
| DJSSD12 | Temperature | 온도센서 상태 이상 | 호퍼 | 0 | 11350 | 0 | -999 | -999 | -120 | 0 | 0 | 31 | 2024-01-12 11:39:24.000 |
[첫 페이지] [9979] [9980] [9981] [9982] 9983 [9984] [9985] [9986] [9987] [마지막 페이지]